Time;durP1;ratioP1;P1;durP2;ratioP2;P2;SDS_P1;SDS_P2;PMS_P1;PMS_P2;Temp;Humidity;BMP_temperature;BMP_pressure;BME280_temperature;BME280_humidity;BME280_pressure;Samples;Min_cycle;Max_cycle;Signal;HPM_P1;HPM_P2
2024/01/27 00:00:14;;;;;;;0.30;0.10;;;;;;;4.33;89.35;102128.28;5053431;28;20447;-50
2024/01/27 00:02:41;;;;;;;0.30;0.10;;;;;;;4.41;89.25;102136.41;5052955;28;20987;-50
2024/01/27 00:05:08;;;;;;;0.30;0.20;;;;;;;4.41;88.98;102134.66;5053363;28;20501;-50
2024/01/27 00:07:35;;;;;;;0.30;0.10;;;;;;;4.25;88.41;102128.91;5053212;28;20525;-50
2024/01/27 00:10:02;;;;;;;0.30;0.20;;;;;;;4.38;88.87;102133.66;5053251;28;20558;-50
2024/01/27 00:12:28;;;;;;;0.30;0.20;;;;;;;4.21;89.96;102130.59;5052947;28;20465;-50
2024/01/27 00:14:55;;;;;;;0.30;0.17;;;;;;;4.42;89.93;102132.91;5052976;28;20482;-50
2024/01/27 00:17:24;;;;;;;0.30;0.20;;;;;;;4.44;89.49;102126.84;5052787;28;20491;-50
2024/01/27 00:19:54;;;;;;;0.30;0.20;;;;;;;4.59;88.98;102135.97;5052933;28;20446;-50
2024/01/27 00:22:20;;;;;;;0.30;0.20;;;;;;;4.53;89.14;102136.72;5052779;28;20450;-51
2024/01/27 00:24:47;;;;;;;0.30;0.20;;;;;;;4.11;89.98;102133.81;5052687;28;20474;-50
2024/01/27 00:27:14;;;;;;;0.30;0.20;;;;;;;4.49;89.93;102136.59;5052657;28;20887;-50
2024/01/27 00:29:40;;;;;;;0.30;0.20;;;;;;;4.54;88.92;102137.63;5052608;28;20451;-50
2024/01/27 00:32:07;;;;;;;0.30;0.20;;;;;;;4.35;89.32;102136.22;5052949;28;20447;-50
2024/01/27 00:34:33;;;;;;;0.30;0.20;;;;;;;4.14;89.18;102140.06;5052855;28;20443;-50
2024/01/27 00:37:00;;;;;;;0.30;0.20;;;;;;;3.92;90.52;102140.31;5052226;28;20490;-50
2024/01/27 00:39:26;;;;;;;0.30;0.20;;;;;;;4.20;89.79;102146.34;5051856;28;21010;-50
2024/01/27 00:41:54;;;;;;;0.30;0.20;;;;;;;4.14;90.15;102149.72;5053414;28;20455;-50
2024/01/27 00:44:21;;;;;;;0.30;0.10;;;;;;;3.91;89.45;102149.06;5051772;28;20509;-50
2024/01/27 00:46:48;;;;;;;0.30;0.10;;;;;;;3.69;90.84;102149.25;5048022;28;20576;-50
2024/01/27 00:49:14;;;;;;;0.30;0.10;;;;;;;3.64;91.05;102149.16;5051536;28;20466;-50
2024/01/27 00:51:41;;;;;;;0.30;0.10;;;;;;;3.64;91.40;102140.38;5052251;28;20455;-50
2024/01/27 00:54:07;;;;;;;0.30;0.20;;;;;;;3.37;91.71;102140.44;5052311;28;20497;-50
2024/01/27 00:56:34;;;;;;;0.30;0.20;;;;;;;3.37;91.00;102146.56;5055871;28;20487;-50
2024/01/27 00:59:00;;;;;;;0.30;0.10;;;;;;;3.31;90.84;102146.41;5052125;28;20843;-51
2024/01/27 01:01:27;;;;;;;0.30;0.20;;;;;;;3.26;91.08;102146.22;5052425;28;20458;-50
2024/01/27 01:03:53;;;;;;;0.30;0.10;;;;;;;3.09;90.36;102144.81;5052197;28;20555;-50
2024/01/27 01:06:20;;;;;;;0.30;0.20;;;;;;;3.11;90.71;102143.13;5051820;28;20482;-50
2024/01/27 01:08:46;;;;;;;0.30;0.13;;;;;;;3.05;90.89;102147.31;5051983;28;20454;-50
2024/01/27 01:11:14;;;;;;;0.30;0.20;;;;;;;3.07;91.73;102151.78;5051787;28;20466;-50
2024/01/27 01:13:41;;;;;;;0.30;0.20;;;;;;;3.06;92.01;102157.88;5051668;28;20537;-50
2024/01/27 01:16:08;;;;;;;0.30;0.20;;;;;;;2.81;91.53;102166.69;5051941;28;20509;-50
2024/01/27 01:18:34;;;;;;;0.30;0.20;;;;;;;2.75;91.08;102163.84;5039080;28;20455;-50
2024/01/27 01:21:01;;;;;;;0.30;0.20;;;;;;;2.57;91.34;102160.59;5051937;28;21229;-50
2024/01/27 01:23:28;;;;;;;0.30;0.10;;;;;;;2.50;91.59;102164.75;5051655;28;20450;-50
2024/01/27 01:25:54;;;;;;;0.20;0.10;;;;;;;2.56;91.99;102162.31;5051621;28;21055;-50
2024/01/27 01:28:21;;;;;;;0.30;0.20;;;;;;;2.65;91.42;102160.03;5051697;28;20533;-50
2024/01/27 01:30:47;;;;;;;0.30;0.20;;;;;;;2.71;92.29;102168.94;5052062;28;20454;-50
2024/01/27 01:33:14;;;;;;;0.30;0.20;;;;;;;2.56;91.98;102175.44;5051801;28;20479;-50
2024/01/27 01:35:40;;;;;;;0.30;0.20;;;;;;;2.40;92.65;102178.38;5051623;28;20470;-50
2024/01/27 01:38:07;;;;;;;0.20;0.10;;;;;;;2.33;92.17;102182.53;5051456;28;20862;-50
2024/01/27 01:40:33;;;;;;;0.30;0.20;;;;;;;2.28;92.44;102180.56;5051234;28;20463;-50
2024/01/27 01:43:00;;;;;;;0.20;0.10;;;;;;;2.35;91.78;102177.34;5052121;28;20460;-50
2024/01/27 01:45:26;;;;;;;0.20;0.10;;;;;;;2.37;91.54;102184.44;5052416;28;20466;-50
2024/01/27 01:47:53;;;;;;;0.23;0.10;;;;;;;2.24;92.00;102190.06;5052492;28;20451;-50
2024/01/27 01:50:20;;;;;;;0.30;0.20;;;;;;;2.13;91.85;102191.41;5052399;28;20454;-50
2024/01/27 01:52:48;;;;;;;0.20;0.10;;;;;;;2.09;91.75;102197.38;5034398;28;20821;-50
2024/01/27 01:55:16;;;;;;;0.20;0.20;;;;;;;2.00;92.84;102197.03;5052472;28;20521;-49
2024/01/27 01:57:43;;;;;;;0.20;0.17;;;;;;;1.88;92.82;102202.72;5053040;28;20927;-48
2024/01/27 02:00:11;;;;;;;0.20;0.10;;;;;;;1.86;92.75;102188.66;5052026;28;21018;-50
2024/01/27 02:02:37;;;;;;;0.20;0.10;;;;;;;1.94;92.13;102182.00;5051464;28;20451;-48
2024/01/27 02:05:04;;;;;;;0.20;0.20;;;;;;;2.12;92.03;102186.13;5051140;28;21030;-48
2024/01/27 02:07:31;;;;;;;0.20;0.10;;;;;;;2.05;91.75;102191.13;5051309;28;20451;-48
2024/01/27 02:09:57;;;;;;;0.20;0.10;;;;;;;1.91;92.36;102205.44;5051614;28;20541;-49
2024/01/27 02:12:24;;;;;;;0.20;0.10;;;;;;;1.70;91.60;102202.91;5033612;28;20543;-48
2024/01/27 02:14:50;;;;;;;0.20;0.20;;;;;;;1.80;92.37;102204.19;5051811;28;20467;-50
2024/01/27 02:17:17;;;;;;;0.20;0.10;;;;;;;1.70;92.64;102213.41;5034399;28;20498;-48
2024/01/27 02:19:44;;;;;;;0.20;0.10;;;;;;;1.68;92.64;102222.94;5052103;28;20936;-48
2024/01/27 02:22:10;;;;;;;0.20;0.10;;;;;;;1.66;92.69;102215.88;5052103;28;20888;-48
2024/01/27 02:24:37;;;;;;;0.20;0.10;;;;;;;1.66;92.73;102214.13;5051948;28;20510;-47
2024/01/27 02:27:03;;;;;;;0.20;0.10;;;;;;;1.55;92.61;102212.81;5052221;28;20447;-48
2024/01/27 02:29:30;;;;;;;0.20;0.17;;;;;;;1.55;92.25;102207.56;5051709;28;20570;-49
2024/01/27 02:31:56;;;;;;;0.20;0.10;;;;;;;1.61;93.08;102213.03;5051320;28;20524;-48
2024/01/27 02:34:23;;;;;;;0.20;0.10;;;;;;;1.48;92.17;102209.03;5051457;28;20457;-48
2024/01/27 02:36:50;;;;;;;0.20;0.10;;;;;;;1.47;92.58;102209.88;5051087;28;20502;-49
2024/01/27 02:39:16;;;;;;;0.20;0.10;;;;;;;1.46;94.00;102212.44;5052276;28;20459;-48
2024/01/27 02:41:42;;;;;;;0.20;0.10;;;;;;;1.55;92.99;102214.53;5054643;28;20457;-48
2024/01/27 02:44:09;;;;;;;0.20;0.10;;;;;;;1.37;91.99;102223.47;5054644;28;20545;-48
2024/01/27 02:46:35;;;;;;;0.20;0.10;;;;;;;1.41;91.75;102220.13;5048857;28;20567;-48
2024/01/27 02:49:02;;;;;;;0.20;0.10;;;;;;;1.56;92.75;102213.72;5051059;28;20446;-48
2024/01/27 02:51:28;;;;;;;0.20;0.13;;;;;;;1.50;92.65;102216.97;5054541;28;20449;-48
2024/01/27 02:53:55;;;;;;;0.20;0.10;;;;;;;1.34;92.07;102225.06;5054547;28;20549;-48
2024/01/27 02:56:22;;;;;;;0.20;0.10;;;;;;;1.37;92.67;102233.97;5054190;28;20532;-48
2024/01/27 02:58:48;;;;;;;0.20;0.10;;;;;;;1.40;93.13;102231.44;5054476;28;20450;-48
2024/01/27 03:01:14;;;;;;;0.20;0.10;;;;;;;1.39;93.11;102239.25;5054881;28;20457;-48
2024/01/27 03:03:41;;;;;;;0.20;0.10;;;;;;;1.33;92.58;102239.88;5054687;28;20457;-48
2024/01/27 03:06:08;;;;;;;0.20;0.10;;;;;;;1.36;93.13;102239.09;5054888;28;20508;-48
2024/01/27 03:08:34;;;;;;;0.20;0.13;;;;;;;1.28;92.83;102238.81;5054703;28;20447;-48
2024/01/27 03:11:01;;;;;;;0.20;0.10;;;;;;;1.16;92.51;102228.72;5054882;28;20447;-48
2024/01/27 03:13:27;;;;;;;0.20;0.20;;;;;;;1.13;93.50;102236.47;5054791;28;20504;-48
2024/01/27 03:15:55;;;;;;;0.20;0.20;;;;;;;1.13;93.55;102232.94;5053920;28;20474;-50
2024/01/27 03:18:22;;;;;;;0.20;0.10;;;;;;;1.13;93.39;102232.94;5053777;28;20494;-47
2024/01/27 03:20:48;;;;;;;0.20;0.10;;;;;;;1.13;93.25;102225.09;5054252;28;20461;-51
2024/01/27 03:23:15;;;;;;;0.20;0.10;;;;;;;1.19;93.28;102238.44;5053803;28;20814;-48
2024/01/27 03:25:41;;;;;;;0.20;0.10;;;;;;;1.10;92.94;102230.22;5053706;28;20549;-47
2024/01/27 03:28:08;;;;;;;0.20;0.10;;;;;;;1.22;93.60;102235.91;5053820;28;20446;-48
2024/01/27 03:30:34;;;;;;;0.20;0.10;;;;;;;1.20;93.27;102234.97;5053771;28;20451;-48
2024/01/27 03:33:01;;;;;;;0.20;0.10;;;;;;;1.29;93.35;102235.34;5053523;28;20457;-48
2024/01/27 03:35:27;;;;;;;0.20;0.10;;;;;;;1.32;94.01;102240.72;5053645;28;21373;-48
2024/01/27 03:37:54;;;;;;;0.20;0.10;;;;;;;1.02;92.25;102244.69;5053351;28;20578;-50
2024/01/27 03:40:20;;;;;;;0.20;0.10;;;;;;;0.96;92.93;102242.75;5053345;28;20505;-48
2024/01/27 03:42:47;;;;;;;0.20;0.10;;;;;;;1.02;92.74;102239.47;5053541;28;20501;-50
2024/01/27 03:45:13;;;;;;;0.20;0.10;;;;;;;0.98;93.23;102241.06;5054118;28;20669;-49
2024/01/27 03:47:40;;;;;;;0.20;0.10;;;;;;;0.88;92.69;102244.13;5043850;28;20454;-49
2024/01/27 03:50:07;;;;;;;0.20;0.10;;;;;;;0.85;93.59;102247.50;5053712;28;20455;-47
2024/01/27 03:52:34;;;;;;;0.20;0.10;;;;;;;0.85;92.96;102247.50;5053961;28;20482;-50
2024/01/27 03:55:01;;;;;;;0.20;0.10;;;;;;;0.79;92.73;102249.84;5055368;28;20889;-48
2024/01/27 03:57:27;;;;;;;0.20;0.10;;;;;;;0.90;93.19;102247.69;5054082;28;20479;-48
2024/01/27 03:59:54;;;;;;;0.20;0.10;;;;;;;0.91;93.92;102249.47;5053864;28;20831;-50
2024/01/27 04:02:20;;;;;;;0.20;0.10;;;;;;;0.87;93.43;102251.09;5053881;28;20520;-48
2024/01/27 04:04:47;;;;;;;0.20;0.10;;;;;;;0.91;94.04;102256.44;5068721;23;20906;-53
2024/01/27 04:07:13;;;;;;;0.20;0.10;;;;;;;0.78;94.25;102258.53;5071788;28;20522;-49
2024/01/27 04:09:40;;;;;;;0.20;0.10;;;;;;;0.87;94.81;102265.91;5071869;28;20457;-50
2024/01/27 04:12:07;;;;;;;0.20;0.10;;;;;;;0.74;94.18;102272.31;5072885;28;20446;-50
2024/01/27 04:14:33;;;;;;;0.20;0.10;;;;;;;0.70;94.32;102266.91;5066960;28;20450;-49
2024/01/27 04:17:00;;;;;;;0.20;0.10;;;;;;;0.66;93.65;102260.63;5053342;28;20494;-50
2024/01/27 04:19:26;;;;;;;0.20;0.10;;;;;;;0.76;93.63;102268.03;5053255;28;20981;-50
2024/01/27 04:21:53;;;;;;;0.20;0.10;;;;;;;0.65;92.71;102268.41;5050667;28;20478;-49
2024/01/27 04:24:19;;;;;;;0.20;0.10;;;;;;;0.69;93.63;102275.59;5054049;28;20789;-50
2024/01/27 04:26:45;;;;;;;0.20;0.10;;;;;;;0.70;93.23;102277.38;5053046;28;20725;-50
2024/01/27 04:29:14;;;;;;;0.20;0.10;;;;;;;0.62;92.84;102274.41;5053269;28;20447;-50
2024/01/27 04:31:41;;;;;;;0.20;0.10;;;;;;;0.55;93.50;102273.25;5053796;28;20454;-51
2024/01/27 04:34:08;;;;;;;0.20;0.13;;;;;;;0.55;93.45;102280.22;5053582;28;20450;-50
2024/01/27 04:36:35;;;;;;;0.20;0.10;;;;;;;0.53;93.23;102276.59;5026669;28;20474;-50
2024/01/27 04:39:01;;;;;;;0.20;0.10;;;;;;;0.58;93.35;102276.00;5049776;28;20443;-50
2024/01/27 04:41:29;;;;;;;0.20;0.10;;;;;;;0.68;93.69;102268.53;5041043;28;20463;-51
2024/01/27 04:43:56;;;;;;;0.20;0.10;;;;;;;0.46;93.86;102266.72;5053031;28;20443;-51
2024/01/27 04:46:23;;;;;;;0.20;0.10;;;;;;;0.45;93.05;102270.16;5049753;28;20480;-51
2024/01/27 04:48:49;;;;;;;0.20;0.10;;;;;;;0.50;93.29;102274.75;5048177;28;20533;-50
2024/01/27 04:51:16;;;;;;;0.20;0.10;;;;;;;0.62;93.46;102266.56;5050291;28;20971;-50
2024/01/27 04:53:42;;;;;;;0.20;0.10;;;;;;;0.35;92.86;102267.94;5048237;28;20462;-51
2024/01/27 04:56:09;;;;;;;0.20;0.10;;;;;;;0.44;93.69;102271.00;5052412;28;20477;-50
2024/01/27 04:58:36;;;;;;;0.20;0.10;;;;;;;0.36;93.60;102275.88;5052555;28;20506;-50
2024/01/27 05:01:03;;;;;;;0.20;0.10;;;;;;;0.39;92.96;102264.63;5052947;28;20885;-51
2024/01/27 05:03:29;;;;;;;0.20;0.10;;;;;;;0.38;93.69;102262.84;5028480;28;20454;-50
2024/01/27 05:05:56;;;;;;;0.20;0.10;;;;;;;0.41;93.66;102257.75;5051155;28;20474;-52
2024/01/27 05:08:22;;;;;;;0.20;0.10;;;;;;;0.48;92.77;102262.44;5047995;28;20451;-52
2024/01/27 05:10:49;;;;;;;0.20;0.10;;;;;;;0.36;93.36;102268.03;5051535;28;20463;-52
2024/01/27 05:13:15;;;;;;;0.20;0.10;;;;;;;0.43;93.38;102269.19;5060456;28;20538;-52
2024/01/27 05:15:42;;;;;;;0.20;0.10;;;;;;;0.45;93.42;102268.44;5052625;28;20471;-52
2024/01/27 05:18:10;;;;;;;0.20;0.10;;;;;;;0.31;94.13;102280.00;5052425;28;20947;-52
2024/01/27 05:20:36;;;;;;;0.20;0.10;;;;;;;0.22;94.27;102283.09;5052315;28;20457;-52
2024/01/27 05:23:03;;;;;;;0.20;0.10;;;;;;;0.30;93.91;102283.44;5031096;28;20450;-52
2024/01/27 05:25:30;;;;;;;0.20;0.10;;;;;;;0.32;94.05;102283.50;5052014;28;20474;-52
2024/01/27 05:27:56;;;;;;;0.20;0.10;;;;;;;0.47;93.18;102289.44;5052502;28;20537;-52
2024/01/27 05:30:23;;;;;;;0.20;0.10;;;;;;;0.49;93.35;102296.50;5052239;28;20454;-52
2024/01/27 05:32:49;;;;;;;0.20;0.10;;;;;;;0.48;92.88;102297.34;5052047;28;20470;-52
2024/01/27 05:35:16;;;;;;;0.20;0.10;;;;;;;0.54;93.41;102288.84;5052243;28;20478;-51
2024/01/27 05:37:42;;;;;;;0.20;0.10;;;;;;;0.44;94.04;102289.31;5051791;28;20526;-52
2024/01/27 05:40:10;;;;;;;0.20;0.10;;;;;;;0.39;92.88;102289.06;5042110;28;20836;-52
2024/01/27 05:42:37;;;;;;;0.20;0.10;;;;;;;0.28;94.17;102283.38;5035610;28;20451;-52
2024/01/27 05:45:04;;;;;;;0.20;0.10;;;;;;;0.33;93.51;102295.75;5031613;28;20488;-52
2024/01/27 05:47:30;;;;;;;0.20;0.10;;;;;;;0.42;94.40;102301.41;5043828;28;20446;-51
2024/01/27 05:49:57;;;;;;;0.20;0.10;;;;;;;0.49;93.69;102296.50;5052030;28;20962;-51
2024/01/27 05:52:25;;;;;;;0.20;0.10;;;;;;;0.58;95.06;102301.28;5051868;28;20503;-52
2024/01/27 05:54:52;;;;;;;0.20;0.10;;;;;;;0.28;94.21;102298.19;5052247;28;20512;-52
2024/01/27 05:57:19;;;;;;;0.20;0.10;;;;;;;0.26;95.07;102298.09;5051809;28;20994;-53
2024/01/27 05:59:46;;;;;;;0.20;0.10;;;;;;;0.32;94.68;102307.06;5051903;28;21045;-52
2024/01/27 06:02:13;;;;;;;0.20;0.10;;;;;;;0.12;94.38;102312.25;5052624;28;20545;-52
2024/01/27 06:04:39;;;;;;;0.20;0.10;;;;;;;0.21;94.38;102311.78;5044889;28;20446;-51
2024/01/27 06:07:06;;;;;;;0.20;0.10;;;;;;;0.16;94.27;102310.69;5047983;28;20454;-51
2024/01/27 06:09:32;;;;;;;0.20;0.10;;;;;;;0.31;94.26;102313.09;5038749;28;20974;-51
2024/01/27 06:12:00;;;;;;;0.20;0.10;;;;;;;0.24;94.37;102311.91;5043529;28;20481;-51
2024/01/27 06:14:27;;;;;;;0.20;0.10;;;;;;;0.20;93.81;102312.59;5051197;28;20452;-51
2024/01/27 06:16:53;;;;;;;0.20;0.10;;;;;;;0.05;93.32;102307.56;5053454;28;20849;-51
2024/01/27 06:19:20;;;;;;;0.20;0.10;;;;;;;0.13;93.59;102313.13;5055513;28;20497;-50
2024/01/27 06:21:46;;;;;;;0.20;0.10;;;;;;;-0.04;93.47;102325.41;5055130;28;20522;-51
2024/01/27 06:24:13;;;;;;;0.20;0.10;;;;;;;-0.24;93.81;102316.66;5055749;28;20462;-51
2024/01/27 06:26:39;;;;;;;0.20;0.10;;;;;;;-0.01;93.59;102323.84;5055052;28;20528;-51
2024/01/27 06:29:06;;;;;;;0.20;0.10;;;;;;;-0.20;94.79;102321.19;5039616;28;20530;-51
2024/01/27 06:31:32;;;;;;;0.20;0.10;;;;;;;-0.13;93.90;102323.28;5037336;28;20548;-50
2024/01/27 06:33:59;;;;;;;0.20;0.10;;;;;;;-0.05;94.28;102326.25;5055278;28;20459;-51
2024/01/27 06:36:27;;;;;;;0.20;0.10;;;;;;;0.15;94.22;102312.41;5054648;28;20557;-51
2024/01/27 06:38:54;;;;;;;0.20;0.10;;;;;;;0.14;93.27;102322.78;5055071;28;20498;-51
2024/01/27 06:41:20;;;;;;;0.20;0.10;;;;;;;-0.04;93.50;102331.53;5038229;28;20451;-51
2024/01/27 06:43:47;;;;;;;0.20;0.10;;;;;;;-0.17;93.35;102333.50;5035121;28;20447;-50
2024/01/27 06:46:13;;;;;;;0.20;0.10;;;;;;;0.06;93.28;102335.50;5039987;28;20515;-50
2024/01/27 06:48:40;;;;;;;0.20;0.10;;;;;;;-0.14;92.65;102334.53;5047765;28;20534;-51
2024/01/27 06:51:06;;;;;;;0.20;0.10;;;;;;;-0.25;93.61;102327.03;5054507;28;20939;-51
2024/01/27 06:53:33;;;;;;;0.20;0.20;;;;;;;-0.17;93.90;102328.28;5054851;28;20451;-51
2024/01/27 06:55:59;;;;;;;0.20;0.10;;;;;;;-0.04;93.22;102334.16;5028530;28;20471;-50
2024/01/27 06:58:26;;;;;;;0.20;0.10;;;;;;;-0.06;93.44;102320.13;5054549;28;20921;-50
2024/01/27 07:00:52;;;;;;;0.20;0.10;;;;;;;-0.09;93.28;102326.94;5054540;28;20501;-51
2024/01/27 07:03:19;;;;;;;0.20;0.10;;;;;;;-0.10;94.75;102319.91;5053270;28;20454;-51
2024/01/27 07:05:46;;;;;;;0.20;0.10;;;;;;;0.08;95.22;102320.78;5054224;28;20851;-51
2024/01/27 07:08:12;;;;;;;0.20;0.10;;;;;;;0.20;93.66;102323.97;5049691;28;20443;-50
2024/01/27 07:10:39;;;;;;;0.20;0.10;;;;;;;-0.08;93.46;102323.50;5041548;28;20820;-51
2024/01/27 07:13:06;;;;;;;0.20;0.10;;;;;;;-0.21;94.28;102329.84;5054162;28;20943;-51
2024/01/27 07:15:33;;;;;;;0.20;0.10;;;;;;;-0.08;93.93;102332.22;5048604;28;20478;-50
2024/01/27 07:17:59;;;;;;;0.20;0.10;;;;;;;-0.04;93.83;102330.66;5036586;28;20573;-51
2024/01/27 07:20:26;;;;;;;0.20;0.10;;;;;;;-0.22;94.07;102332.41;5054276;28;20445;-52
2024/01/27 07:22:52;;;;;;;0.30;0.20;;;;;;;0.03;93.32;102337.97;5054542;28;20490;-52
2024/01/27 07:25:19;;;;;;;0.20;0.10;;;;;;;0.48;93.78;102333.97;5053684;28;20470;-52
2024/01/27 07:27:46;;;;;;;0.20;0.10;;;;;;;0.15;92.74;102333.31;5054537;28;20486;-53
2024/01/27 07:30:14;;;;;;;0.20;0.10;;;;;;;-0.09;92.41;102332.16;5051546;28;20491;-52
2024/01/27 07:32:43;;;;;;;0.20;0.10;;;;;;;-0.15;93.00;102337.06;5027550;28;20451;-51
2024/01/27 07:35:10;;;;;;;0.20;0.10;;;;;;;-0.17;93.50;102343.94;5046923;28;20466;-52
2024/01/27 07:37:37;;;;;;;0.20;0.10;;;;;;;-0.06;93.78;102342.75;5053519;28;20451;-51
2024/01/27 07:40:05;;;;;;;0.20;0.10;;;;;;;-0.03;94.73;102348.13;5046042;28;20866;-51
2024/01/27 07:42:31;;;;;;;0.20;0.10;;;;;;;-0.25;94.32;102350.56;5045230;28;20440;-51
2024/01/27 07:44:58;;;;;;;0.20;0.10;;;;;;;-0.24;95.10;102349.72;5040060;28;20514;-51
2024/01/27 07:47:25;;;;;;;0.20;0.10;;;;;;;-0.06;95.76;102337.53;5042131;28;20470;-51
2024/01/27 07:49:52;;;;;;;0.20;0.10;;;;;;;0.02;94.94;102340.53;5040091;28;20451;-52
2024/01/27 07:52:19;;;;;;;0.20;0.10;;;;;;;0.22;94.42;102347.56;5045782;28;20446;-51
2024/01/27 07:54:46;;;;;;;0.20;0.10;;;;;;;0.19;94.53;102348.31;5054045;28;20512;-52
2024/01/27 07:57:12;;;;;;;0.20;0.10;;;;;;;0.34;94.79;102342.91;5052202;28;20865;-50
2024/01/27 07:59:39;;;;;;;0.20;0.10;;;;;;;0.31;94.39;102339.25;5053710;28;20497;-50
2024/01/27 08:02:05;;;;;;;0.20;0.10;;;;;;;0.40;94.20;102332.72;5053679;28;20558;-51
2024/01/27 08:04:32;;;;;;;0.20;0.10;;;;;;;0.50;95.24;102332.31;5053800;28;20459;-51
2024/01/27 08:06:58;;;;;;;0.20;0.10;;;;;;;0.63;95.23;102352.06;5052906;28;20987;-50
2024/01/27 08:09:25;;;;;;;0.20;0.10;;;;;;;0.64;95.15;102345.13;5038699;28;20444;-50
2024/01/27 08:11:52;;;;;;;0.20;0.10;;;;;;;0.61;95.75;102344.97;5050587;28;20447;-50
2024/01/27 08:14:19;;;;;;;0.20;0.10;;;;;;;0.82;95.39;102345.91;5042622;28;20448;-50
2024/01/27 08:16:46;;;;;;;0.20;0.10;;;;;;;0.89;95.83;102358.47;5050406;28;21002;-50
2024/01/27 08:19:14;;;;;;;0.20;0.10;;;;;;;0.92;96.07;102361.22;5053225;28;20486;-49
2024/01/27 08:21:41;;;;;;;0.20;0.10;;;;;;;1.02;95.59;102365.13;5052858;28;20458;-50
2024/01/27 08:24:07;;;;;;;0.20;0.10;;;;;;;1.01;95.13;102359.00;5052800;28;20451;-49
2024/01/27 08:26:34;;;;;;;0.20;0.10;;;;;;;1.20;94.68;102358.06;5052616;28;20471;-49
2024/01/27 08:29:00;;;;;;;0.20;0.10;;;;;;;1.35;95.15;102360.44;5053019;28;20793;-49
2024/01/27 08:31:26;;;;;;;0.20;0.10;;;;;;;1.47;94.13;102358.34;5052866;28;20451;-50
2024/01/27 08:33:53;;;;;;;0.20;0.10;;;;;;;1.58;94.97;102358.78;5052988;28;20537;-50
2024/01/27 08:36:20;;;;;;;0.20;0.13;;;;;;;1.57;94.84;102364.88;5052725;28;20520;-50
2024/01/27 08:38:46;;;;;;;0.20;0.10;;;;;;;1.71;95.05;102361.97;5052525;28;20494;-49
2024/01/27 08:41:12;;;;;;;0.20;0.10;;;;;;;1.88;95.26;102359.13;5045573;28;20443;-50
2024/01/27 08:43:39;;;;;;;0.20;0.10;;;;;;;1.98;94.66;102364.81;5032478;28;20455;-49
2024/01/27 08:46:07;;;;;;;0.20;0.10;;;;;;;2.03;95.68;102363.25;5038206;28;20490;-50
2024/01/27 08:48:34;;;;;;;0.20;0.10;;;;;;;1.96;97.23;102369.13;5045181;28;20453;-50
2024/01/27 08:51:00;;;;;;;0.20;0.10;;;;;;;1.93;97.61;102363.75;5052301;28;21019;-50
2024/01/27 08:53:27;;;;;;;0.20;0.10;;;;;;;1.93;98.21;102363.75;5052392;28;20826;-50
2024/01/27 08:55:53;;;;;;;0.20;0.10;;;;;;;2.05;98.87;102363.31;5052032;28;20928;-50
2024/01/27 08:58:20;;;;;;;0.20;0.10;;;;;;;2.08;97.88;102366.09;5052341;28;20487;-50
2024/01/27 09:00:46;;;;;;;0.20;0.10;;;;;;;2.18;97.98;102367.31;5052459;28;20507;-50
2024/01/27 09:03:14;;;;;;;0.20;0.10;;;;;;;2.03;98.76;102360.63;5052249;28;20952;-50
2024/01/27 09:05:43;;;;;;;0.20;0.10;;;;;;;2.31;98.49;102353.84;5051865;28;20492;-50
2024/01/27 09:08:10;;;;;;;1.97;1.90;;;;;;;2.27;98.72;102351.94;5052141;28;20446;-50
2024/01/27 09:10:37;;;;;;;0.20;0.10;;;;;;;2.45;98.61;102359.63;5045205;28;20450;-49
2024/01/27 09:13:04;;;;;;;0.20;0.10;;;;;;;2.61;97.53;102368.16;5052211;28;20881;-50
2024/01/27 09:15:31;;;;;;;0.20;0.13;;;;;;;2.62;97.04;102362.06;5047775;28;20562;-49
2024/01/27 09:17:57;;;;;;;0.20;0.10;;;;;;;2.90;96.41;102373.56;5052419;28;20882;-50
2024/01/27 09:20:24;;;;;;;0.20;0.20;;;;;;;3.03;96.51;102378.44;5054202;28;20843;-51
2024/01/27 09:22:50;;;;;;;0.20;0.10;;;;;;;3.22;95.54;102385.22;5050859;28;20486;-50
2024/01/27 09:25:17;;;;;;;0.20;0.20;;;;;;;3.27;94.93;102396.78;5049953;28;20480;-52
2024/01/27 09:27:43;;;;;;;9.10;4.20;;;;;;;3.33;94.38;102398.75;5043826;28;20444;-51
2024/01/27 09:30:10;;;;;;;0.20;0.10;;;;;;;3.42;93.85;102399.94;5053158;28;20455;-52
2024/01/27 09:32:37;;;;;;;0.20;0.10;;;;;;;3.53;93.08;102395.03;5042007;28;20474;-57
2024/01/27 09:35:04;;;;;;;0.20;0.10;;;;;;;3.72;93.51;102401.84;5054084;28;20470;-51
2024/01/27 09:37:31;;;;;;;0.20;0.10;;;;;;;3.80;93.34;102390.72;5031407;28;20458;-51
2024/01/27 09:40:00;;;;;;;0.30;0.20;;;;;;;3.85;92.44;102393.50;5045901;28;20945;-52
2024/01/27 09:42:27;;;;;;;0.20;0.10;;;;;;;3.83;92.97;102388.16;5026936;28;20502;-54
2024/01/27 09:44:56;;;;;;;0.30;0.20;;;;;;;3.65;93.22;102387.56;5035860;28;20530;-51
2024/01/27 09:47:23;;;;;;;0.20;0.10;;;;;;;4.02;92.27;102375.63;5038682;28;20598;-51
2024/01/27 09:49:51;;;;;;;0.20;0.10;;;;;;;4.05;91.47;102362.56;5046022;28;20558;-51
2024/01/27 09:52:17;;;;;;;0.20;0.10;;;;;;;4.16;91.51;102363.81;5053988;28;20442;-51
2024/01/27 09:54:44;;;;;;;0.20;0.10;;;;;;;4.07;92.69;102367.03;5058767;28;20478;-51
2024/01/27 09:57:12;;;;;;;0.30;0.30;;;;;;;4.19;91.81;102363.00;5058591;28;20474;-52
2024/01/27 09:59:44;;;;;;;0.20;0.10;;;;;;;4.25;91.97;102355.28;5058128;28;20866;-51
2024/01/27 10:02:11;;;;;;;0.20;0.13;;;;;;;4.34;92.07;102372.25;5058283;28;20443;-51
2024/01/27 10:04:41;;;;;;;0.20;0.10;;;;;;;4.32;91.42;102370.44;5057847;28;20450;-52
2024/01/27 10:07:08;;;;;;;0.20;0.10;;;;;;;4.48;90.97;102372.66;5069525;22;20502;-48
2024/01/27 10:09:35;;;;;;;0.20;0.10;;;;;;;4.46;91.38;102377.88;5043793;28;20479;-49
2024/01/27 10:12:02;;;;;;;0.30;0.10;;;;;;;4.52;91.15;102378.91;5040334;28;20446;-49
2024/01/27 10:14:41;;;;;;;0.20;0.20;;;;;;;4.62;89.75;102370.44;5055273;28;20450;-50
2024/01/27 10:17:11;;;;;;;0.30;0.20;;;;;;;4.75;89.33;102369.94;5034985;28;20494;-49
2024/01/27 10:19:38;;;;;;;0.20;0.10;;;;;;;5.00;88.46;102366.28;5049312;28;20490;-50
2024/01/27 10:22:10;;;;;;;0.30;0.20;;;;;;;4.91;88.41;102360.72;5046591;28;20448;-49
2024/01/27 10:24:37;;;;;;;0.20;0.10;;;;;;;5.05;88.28;102359.38;5050278;28;20450;-48
2024/01/27 10:27:04;;;;;;;0.20;0.10;;;;;;;5.53;86.25;102353.63;5046161;28;20502;-49
2024/01/27 10:29:31;;;;;;;0.30;0.10;;;;;;;5.43;85.72;102349.84;5050239;28;20504;-49
2024/01/27 10:32:08;;;;;;;0.30;0.13;;;;;;;5.36;85.25;102353.19;5045568;28;20517;-48
2024/01/27 10:34:35;;;;;;;0.30;0.20;;;;;;;5.74;85.74;102347.97;5051636;28;20446;-49
2024/01/27 10:37:01;;;;;;;0.30;0.20;;;;;;;5.85;85.12;102342.09;5043914;28;20467;-49
2024/01/27 10:39:28;;;;;;;0.30;0.20;;;;;;;5.65;84.63;102339.00;5056114;28;20477;-49
2024/01/27 10:41:54;;;;;;;0.30;0.20;;;;;;;5.94;83.87;102333.56;5052758;28;20451;-49
2024/01/27 10:44:21;;;;;;;0.30;0.20;;;;;;;5.94;83.32;102341.47;5054162;28;20453;-49
2024/01/27 10:46:49;;;;;;;0.30;0.20;;;;;;;5.81;84.39;102344.63;5049994;28;20478;-49
2024/01/27 10:49:17;;;;;;;0.30;0.20;;;;;;;6.11;84.23;102342.75;5046928;28;20819;-49
2024/01/27 10:51:54;;;;;;;0.30;0.20;;;;;;;6.35;82.82;102345.03;5049871;28;20463;-49
2024/01/27 10:54:26;;;;;;;0.30;0.20;;;;;;;6.39;81.84;102340.72;5034443;28;20455;-49
2024/01/27 10:56:56;;;;;;;0.30;0.20;;;;;;;6.55;81.57;102348.09;5034791;28;20494;-50
2024/01/27 10:59:25;;;;;;;0.30;0.20;;;;;;;6.53;81.40;102344.53;5041302;28;20486;-50
2024/01/27 11:01:53;;;;;;;0.30;0.10;;;;;;;6.58;81.44;102349.91;5051237;28;20474;-49
2024/01/27 11:04:20;;;;;;;0.57;0.57;;;;;;;6.72;80.30;102337.91;5043666;28;20476;-49
2024/01/27 11:06:48;;;;;;;0.30;0.17;;;;;;;6.86;81.09;102335.53;5052238;28;20912;-50
2024/01/27 11:09:15;;;;;;;0.30;0.20;;;;;;;6.92;78.94;102340.94;5039000;28;20633;-51
2024/01/27 11:11:42;;;;;;;0.30;0.17;;;;;;;6.86;80.04;102343.47;5050546;28;20450;-50
2024/01/27 11:14:10;;;;;;;0.30;0.20;;;;;;;6.97;81.07;102342.78;5027294;28;20477;-51
2024/01/27 11:16:43;;;;;;;0.30;0.20;;;;;;;6.88;80.51;102332.06;5040371;28;20509;-49
2024/01/27 11:19:11;;;;;;;0.30;0.20;;;;;;;7.06;80.07;102331.50;5053786;28;20518;-50
2024/01/27 11:21:38;;;;;;;0.30;0.20;;;;;;;7.18;80.15;102326.44;5039916;28;20465;-51
2024/01/27 11:24:18;;;;;;;0.30;0.20;;;;;;;7.31;78.25;102312.56;5053841;28;20450;-50
2024/01/27 11:26:45;;;;;;;0.30;0.20;;;;;;;7.29;79.50;102316.06;5040085;28;20463;-51
2024/01/27 11:29:20;;;;;;;0.30;0.20;;;;;;;7.13;78.90;102322.84;5053571;28;20449;-50